Latest Coastal Weather Observations for Maatsuyker Island

IDT60701

Issued at 3:11 pm EST Tuesday 7 July 2015 (issued every 10 minutes, with the page automatically refreshed every 10 minutes)

About coastal observations | Map of coastal stations | Coastal observations for TAS | Marine services | Other Formats
Station Details ID: 094041 Name: MAATSUYKER ISLAND LIGHTHOUSE Lat: -43.66 Lon: 146.27 Height: 146.5 m
Data from the previous 72 hours. | See also: Recent months at Maatsuyker Island
Date/Time
EST
Temp

°C
Wind Pressure Rain
since 9am
mm
Weather Cloud Vis
km
Sea
Height
m
Swell
Dir
 
Speed
knots
Gust
knots
hPa Trend Height
m
Period
s
Dir
07/03:00pm 7.5 SE 6 13 1025.2 R 0.0 Fine Partly cloudy 25 <0.5 2.0 13 SW
07/02:30pm 7.0 N 6 11 1025.1 - 0.0 - - - - - - -
07/02:00pm 7.4 NNW 5 11 1025.1 - 0.0 - - - - - - -
07/01:30pm 7.1 NW 6 11 1025.1 - 0.0 - - - - - - -
07/01:00pm 7.1 NW 6 13 1025.0 - 0.0 - - - - - - -
07/12:30pm 7.3 NNW 3 6 1025.2 - 0.0 - - - - - - -
07/12:00pm 8.3 NNW 5 13 1025.4 - 0.0 - - - - - - -
07/11:30am 7.8 NW 4 9 1025.4 - 0.0 - - - - - - -
07/11:00am 7.4 WNW 5 9 1025.7 - 0.0 - - - - - - -
07/10:30am 6.8 NW 3 5 1025.9 - 0.0 - - - - - - -
07/10:00am 6.2 NNW 4 8 1025.6 - 0.0 - - - - - - -
07/09:30am 6.6 NNW 4 7 1025.2 - 0.0 - - - - - - -
07/09:00am 6.5 SSE 4 6 1025.2 R 0.2 Drizzle Mostly cloudy 25 <0.5 2.0 11 SW
07/08:30am 6.4 NNW 4 8 1024.8 - 0.2 - - - - - - -
07/08:00am 5.9 NNW 4 11 1024.8 - 0.2 - - - - - - -
07/07:30am 5.8 N 4 6 1024.6 - 0.0 - - - - - - -
07/07:00am 6.0 N 4 6 1024.3 - 0.0 - - - - - - -
07/06:30am 6.3 NNW 4 6 1023.9 - 0.0 - - - - - - -
07/06:00am 5.8 SE 5 7 1023.9 R 0.0 Showers Mostly cloudy 20 <0.5 2.0 11 SW
07/05:30am 6.1 N 4 8 1023.1 - 0.0 - - - - - - -
07/05:00am 6.3 NNW 5 7 1022.6 - 0.0 - - - - - - -
07/04:30am 6.2 N 3 7 1022.7 - 0.0 - - - - - - -
07/04:00am 5.9 NNW 4 7 1022.5 - 0.0 - - - - - - -
07/03:30am 5.9 NNW 5 8 1022.5 - 0.0 - - - - - - -
07/03:00am 6.2 NNW 4 6 1022.8 - 0.0 - - - - - - -
07/02:30am 6.1 N 4 7 1022.6 - 0.0 - - - - - - -
07/02:00am 6.1 N 4 7 1022.2 - 0.0 - - - - - - -
07/01:30am 6.2 NNW 4 8 1021.9 - 0.0 - - - - - - -
07/01:00am 6.3 N 4 9 1021.9 - 0.0 - - - - - - -
07/12:30am 6.1 N 4 6 1021.8 - 0.0 - - - - - - -
07/12:00am 6.0 NNW 5 9 1022.1 - 0.0 - - - - - - -
 
Date/Time
EST
Temp

°C
Wind Pressure Rain
since 9am
mm
Weather Cloud Vis
km
Sea
Height
m
Swell
Dir
 
Speed
knots
Gust
knots
hPa Trend Height
m
Period
s
Dir
06/11:30pm 6.0 N 3 6 1021.7 - 0.0 - - - - - - -
06/11:00pm 6.0 NNW 3 5 1021.5 - 0.0 - - - - - - -
06/10:30pm 6.0 NNW 5 8 1021.5 - 0.0 - - - - - - -
06/10:00pm 6.0 N 5 12 1021.2 - 0.0 - - - - - - -
06/09:30pm 6.0 NNW 5 8 1021.1 - 0.0 - - - - - - -
06/09:00pm 5.9 NNW 5 8 1021.3 - 0.0 - - - - - - -
06/08:30pm 5.8 NNW 4 7 1020.8 - 0.0 - - - - - - -
06/08:00pm 6.1 NNW 4 8 1020.5 - 0.0 - - - - - - -
06/07:30pm 6.1 N 4 9 1020.2 - 0.0 - - - - - - -
06/07:00pm 5.9 NNW 4 8 1020.0 - 0.0 - - - - - - -
06/06:30pm 5.9 NNW 3 6 1019.7 - 0.0 - - - - - - -
06/06:00pm 5.9 N 5 7 1019.5 - 0.0 - - - - - - -
06/05:30pm 5.6 N 4 7 1019.1 - 0.0 - - - - - - -
06/05:00pm 5.9 NNW 5 8 1018.7 - 0.0 - - - - - - -
06/04:30pm 5.7 NW 5 9 1018.6 - 0.0 - - - - - - -
06/04:00pm 6.3 NNW 5 8 1018.2 - 0.0 - - - - - - -
06/03:30pm 7.0 NW 6 16 1018.0 - 0.0 - - - - - - -
06/03:00pm 7.2 SE 4 8 1017.8 R 0.0 Fine Partly cloudy 25 1 3.0 13 SE
06/02:30pm 7.1 N 4 7 1017.3 - 0.0 - - - - - - -
06/02:00pm 7.0 NW 5 8 1017.2 - 0.0 - - - - - - -
06/01:30pm 8.0 NNW 5 7 1017.1 - 0.0 - - - - - - -
06/01:00pm 7.6 NNW 4 12 1017.2 - 0.0 - - - - - - -
06/12:30pm 7.0 NNW 4 7 1017.2 - 0.0 - - - - - - -
06/12:00pm 6.5 NNW 5 8 1017.4 - 0.0 - - - - - - -
06/11:30am 6.6 NW 7 15 1017.1 - 0.0 - - - - - - -
06/11:00am 6.4 NW 5 9 1017.6 - 0.0 - - - - - - -
06/10:30am 6.3 NW 5 9 1017.4 - 0.0 - - - - - - -
06/10:00am 5.4 NW 5 8 1017.4 - 0.0 - - - - - - -
06/09:30am 5.6 NW 4 7 1016.8 - 0.0 - - - - - - -
06/09:00am 5.4 SE 3 6 1016.8 R 0.0 Fine Partly cloudy 35 <0.5 3.0 12 SW
06/08:30am 5.7 NNW 6 11 1016.4 - 0.0 - - - - - - -
06/08:00am 5.1 NW 5 9 1016.4 - 0.0 - - - - - - -
06/07:30am 5.1 NNW 5 12 1016.1 - 0.0 - - - - - - -
06/07:00am 5.1 N 4 7 1016.1 - 0.0 - - - - - - -
06/06:30am 5.4 NNW 4 7 1015.8 - 0.0 - - - - - - -
06/06:00am 5.4 SE 4 6 1015.9 R 0.0 Fine Partly cloudy 20 <0.5 3.0 12 SW
06/05:30am 5.6 N 4 7 1015.5 - 0.0 - - - - - - -
06/05:00am 5.9 N 4 6 1015.3 - 0.0 - - - - - - -
06/04:30am 5.9 N 4 8 1015.2 - 0.0 - - - - - - -
06/04:00am 5.9 N 5 8 1015.1 - 0.0 - - - - - - -
06/03:30am 5.8 N 4 7 1015.1 - 0.0 - - - - - - -
06/03:00am 6.0 NNW 4 7 1015.4 - 0.0 - - - - - - -
06/02:30am 5.9 N 3 5 1015.1 - 0.0 - - - - - - -
06/02:00am 6.1 NNW 3 6 1014.9 - 0.0 - - - - - - -
06/01:30am 6.1 NNW 5 9 1014.8 - 0.0 - - - - - - -
06/01:00am 6.1 NNW 4 6 1014.9 - 0.0 - - - - - - -
06/12:30am 6.2 N 4 7 1015.0 - 0.0 - - - - - - -
06/12:00am 5.9 N 4 5 1015.4 - 0.0 - - - - - - -
 
Date/Time
EST
Temp

°C
Wind Pressure Rain
since 9am
mm
Weather Cloud Vis
km
Sea
Height
m
Swell
Dir
 
Speed
knots
Gust
knots
hPa Trend Height
m
Period
s
Dir
05/11:30pm 6.4 N 3 6 1015.1 - 0.0 - - - - - - -
05/11:00pm 6.4 N 3 6 1015.1 - 0.0 - - - - - - -
05/10:30pm 6.4 N 3 5 1015.1 - 0.0 - - - - - - -
05/10:00pm 6.5 N 3 6 1015.1 - 0.0 - - - - - - -
05/09:30pm 6.6 N 3 7 1015.0 - 0.0 - - - - - - -
05/09:00pm 6.5 NNE 4 10 1015.4 - 0.0 - - - - - - -
05/08:30pm 6.7 NE 5 8 1015.1 - 0.0 - - - - - - -
05/08:00pm 6.6 N 4 6 1015.0 - 0.0 - - - - - - -
05/07:30pm 6.6 NNE 3 5 1014.9 - 0.0 - - - - - - -
05/07:00pm 6.5 NE 4 11 1014.7 - 0.0 - - - - - - -
05/06:30pm 6.4 NE 5 10 1014.5 - 0.0 - - - - - - -
05/06:00pm 6.3 NNE 5 10 1014.6 - 0.0 - - - - - - -
05/05:30pm 6.8 SSE 14 19 1014.3 - 0.0 - - - - - - -
05/05:00pm 7.1 SSE 11 13 1014.2 - 0.0 - - - - - - -
05/04:30pm 7.2 SSE 12 15 1014.0 - 0.0 - - - - - - -
05/04:00pm 7.4 S 12 17 1013.8 - 0.0 - - - - - - -
05/03:30pm 7.5 S 13 16 1013.7 - 0.0 - - - - - - -
05/03:00pm 8.3 SSW 11 14 1013.9 R 0.0 Distant precip. Mostly cloudy 12 <0.5 5.0 15 SW
05/02:30pm 8.9 S 10 13 1013.5 - 0.0 - - - - - - -
05/02:00pm 8.6 S 8 12 1013.6 - 0.0 - - - - - - -
05/01:30pm 8.0 S 10 12 1013.7 - 0.0 - - - - - - -
05/01:00pm 8.0 S 14 18 1013.7 - 0.0 - - - - - - -
05/12:30pm 8.6 S 13 19 1013.7 - 0.0 - - - - - - -
05/12:00pm 8.6 W 9 12 1014.2 - 0.0 - - - - - - -
05/11:30am 8.5 SSW 9 13 1014.0 - 0.0 - - - - - - -
05/11:00am 8.2 SW 11 15 1014.3 - 0.0 - - - - - - -
05/10:30am 7.9 SW 12 16 1014.2 - 0.0 - - - - - - -
05/10:00am 8.0 SSW 15 18 1014.1 - 0.0 - - - - - - -
05/09:30am 8.2 W 9 14 1014.1 - 0.0 - - - - - - -
05/09:00am 8.0 W 10 14 1014.3 R 0.2 Fine Mostly cloudy 12 <0.5 4.5 14 SW
05/08:30am 7.9 W 12 16 1014.1 - 0.2 - - - - - - -
05/08:00am 7.9 WSW 13 16 1014.0 - 0.2 - - - - - - -
05/07:30am 8.2 W 13 18 1013.8 - 0.2 - - - - - - -
05/07:00am 8.1 W 15 22 1013.5 - 0.2 - - - - - - -
05/06:30am 8.2 W 16 22 1013.3 - 0.2 - - - - - - -
05/06:00am 8.4 W 15 24 1013.4 R 0.2 Fine Mostly cloudy 12 1 5.0 15 SW
05/05:30am 8.5 WNW 23 27 1012.8 - 0.2 - - - - - - -
05/05:00am 8.6 WNW 20 25 1012.9 - 0.2 - - - - - - -
05/04:30am 8.4 WNW 20 24 1012.9 - 0.2 - - - - - - -
05/04:00am 8.5 WNW 22 27 1012.5 - 0.2 - - - - - - -
05/03:30am 8.5 WNW 24 28 1012.6 - 0.2 - - - - - - -
05/03:00am 8.5 WNW 23 27 1013.0 - 0.2 - - - - - - -
05/02:30am 8.2 WNW 24 29 1012.9 - 0.2 - - - - - - -
05/02:00am 8.8 WNW 27 31 1012.9 - 0.2 - - - - - - -
05/01:30am 9.0 NW 30 35 1012.4 - 0.2 - - - - - - -
05/01:00am 8.9 NW 31 37 1012.5 - 0.2 - - - - - - -
05/12:30am 8.9 NW 30 34 1012.5 - 0.2 - - - - - - -
05/12:00am 8.7 NW 30 35 1012.9 - 0.2 - - - - - - -
 
Date/Time
EST
Temp

°C
Wind Pressure Rain
since 9am
mm
Weather Cloud Vis
km
Sea
Height
m
Swell
Dir
 
Speed
knots
Gust
knots
hPa Trend Height
m
Period
s
Dir
04/11:30pm 8.8 NW 32 37 1012.5 - 0.2 - - - - - - -
04/11:00pm 8.8 NW 30 33 1012.6 - 0.2 - - - - - - -
04/10:30pm 8.6 NW 29 34 1012.8 - 0.2 - - - - - - -
04/10:00pm 8.6 WNW 29 33 1013.1 - 0.2 - - - - - - -
04/09:30pm 8.7 NW 35 40 1012.7 - 0.2 - - - - - - -
04/09:00pm 8.5 WNW 32 37 1012.9 - 0.2 - - - - - - -
04/08:30pm 8.7 NW 33 39 1012.7 - 0.0 - - - - - - -
04/08:00pm 8.9 NW 36 40 1012.5 - 0.0 - - - - - - -
04/07:30pm 8.6 NW 33 38 1012.4 - 0.0 - - - - - - -
04/07:00pm 8.2 NW 27 32 1012.6 - 0.0 - - - - - - -
04/06:30pm 7.6 WNW 33 37 1012.5 - 0.0 - - - - - - -
04/06:00pm 8.3 WNW 25 31 1012.9 - 0.0 - - - - - - -
04/05:30pm 8.3 WNW 27 35 1012.4 - 0.0 - - - - - - -
04/05:00pm 8.4 WNW 30 35 1012.2 - 0.0 - - - - - - -
04/04:43pm 8.4 WNW 31 41 1012.3 - 0.0 - - - - - - -
04/04:30pm 8.6 NW 36 42 1011.7 - 0.0 - - - - - - -
04/04:00pm 8.5 WNW 35 39 1011.6 - 0.0 - - - - - - -
04/03:30pm 8.5 WNW 36 41 1011.4 - 0.0 - - - - - - -

Other Formats:

Comma delimited format used in spreadsheet applications
http://www.bom.gov.au/fwo/IDT60701/IDT60701.94962.axf

JavaScript Object Notation format (JSON) in row-major order
http://www.bom.gov.au/fwo/IDT60701/IDT60701.94962.json